Time;durP1;ratioP1;P1;durP2;ratioP2;P2;SDS_P1;SDS_P2;PMS_P1;PMS_P2;Temp;Humidity;BMP_temperature;BMP_pressure;BME280_temperature;BME280_humidity;BME280_pressure;Samples;Min_cycle;Max_cycle;Signal;HPM_P1;HPM_P2
2023/10/03 00:01:01;;;;;;;0.10;0.10;;;11.70;99.90;;;;;;5072255;28;20220;-79
2023/10/03 00:03:30;;;;;;;0.10;0.10;;;12.20;99.90;;;;;;5076924;28;20365;-77
2023/10/03 00:05:57;;;;;;;5.88;4.38;;;11.60;99.90;;;;;;5092152;28;20484;-77
2023/10/03 00:08:26;;;;;;;0.08;0.08;;;11.60;99.90;;;;;;5091900;28;20470;-76
2023/10/03 00:10:52;;;;;;;0.73;0.73;;;11.60;99.90;;;;;;5070813;28;20028;-76
2023/10/03 00:13:19;;;;;;;0.05;0.05;;;11.60;99.90;;;;;;5088799;28;20032;-77
2023/10/03 00:15:51;;;;;;;0.10;0.10;;;12.00;99.90;;;;;;5089477;28;20513;-76
2023/10/03 00:18:19;;;;;;;1.27;1.27;;;11.60;99.90;;;;;;5097908;28;20036;-76
2023/10/03 00:20:47;;;;;;;0.10;0.10;;;11.50;99.90;;;;;;5091064;28;20039;-77
2023/10/03 00:23:15;;;;;;;0.10;0.10;;;11.50;99.90;;;;;;5094596;28;20112;-76
2023/10/03 00:25:44;;;;;;;0.10;0.10;;;10.70;99.90;;;;;;5089329;28;20077;-77
2023/10/03 00:28:10;;;;;;;0.10;0.10;;;11.00;99.90;;;;;;5093384;28;20031;-76
2023/10/03 00:30:45;;;;;;;0.30;0.30;;;11.40;99.90;;;;;;5101480;28;20067;-76
2023/10/03 00:33:13;;;;;;;0.10;0.10;;;11.40;99.90;;;;;;5093105;28;20032;-77
2023/10/03 00:35:47;;;;;;;1.95;1.85;;;11.40;99.90;;;;;;5097617;28;20111;-76
2023/10/03 00:38:15;;;;;;;0.10;0.10;;;11.30;99.90;;;;;;5091240;28;20403;-76
2023/10/03 00:40:53;;;;;;;0.10;0.10;;;11.30;99.90;;;;;;5087900;28;20298;-76
2023/10/03 00:43:19;;;;;;;0.10;0.10;;;11.20;99.90;;;;;;5080234;28;20044;-76
2023/10/03 00:45:48;;;;;;;0.10;0.10;;;11.20;99.90;;;;;;5075073;28;20312;-76
2023/10/03 00:48:18;;;;;;;0.10;0.10;;;;;;;;;;5100479;28;20016;-76
2023/10/03 00:50:48;;;;;;;0.10;0.10;;;11.20;99.90;;;;;;5080700;28;20024;-76
2023/10/03 00:53:17;;;;;;;0.00;0.00;;;11.10;99.90;;;;;;5071556;28;20035;-76
2023/10/03 00:55:44;;;;;;;0.50;0.50;;;11.20;99.90;;;;;;5058001;28;20045;-76
2023/10/03 01:00:48;;;;;;;6.93;6.63;;;11.10;99.90;;;;;;5083975;28;20051;-76
2023/10/03 01:03:37;;;;;;;0.10;0.10;;;11.10;99.90;;;;;;5091446;28;20044;-76
2023/10/03 01:06:09;;;;;;;0.10;0.10;;;11.10;99.90;;;;;;5073935;28;20078;-77
2023/10/03 01:08:46;;;;;;;0.10;0.10;;;11.10;99.90;;;;;;5053633;28;20071;-77
2023/10/03 01:11:24;;;;;;;0.10;0.10;;;11.10;99.90;;;;;;5075471;28;20068;-77
2023/10/03 01:14:00;;;;;;;0.20;0.20;;;11.10;99.90;;;;;;5088374;28;20101;-77
2023/10/03 01:16:36;;;;;;;0.10;0.10;;;11.10;99.90;;;;;;5086917;28;20036;-75
2023/10/03 01:19:29;;;;;;;0.10;0.10;;;11.60;99.90;;;;;;5072095;28;20087;-77
2023/10/03 01:21:59;;;;;;;0.10;0.10;;;11.10;99.90;;;;;;5091201;28;20089;-76
2023/10/03 01:24:30;;;;;;;0.10;0.10;;;11.10;99.90;;;;;;5089243;28;20058;-76
2023/10/03 01:26:56;;;;;;;0.00;0.00;;;11.10;99.90;;;;;;5089940;28;20023;-75
2023/10/03 01:29:23;;;;;;;0.10;0.10;;;11.10;99.90;;;;;;5066260;28;20111;-76
2023/10/03 01:31:52;;;;;;;0.10;0.10;;;11.30;99.90;;;;;;5073528;28;20107;-75
2023/10/03 01:34:18;;;;;;;0.10;0.10;;;11.00;99.90;;;;;;5093052;28;20111;-76
2023/10/03 01:36:48;;;;;;;0.13;0.13;;;11.10;99.90;;;;;;5088261;28;20021;-77
2023/10/03 01:39:20;;;;;;;0.10;0.10;;;11.10;99.90;;;;;;5069653;28;20028;-76
2023/10/03 01:41:46;;;;;;;0.10;0.10;;;11.00;99.90;;;;;;5083778;28;20016;-76
2023/10/03 01:44:12;;;;;;;0.20;0.20;;;;;;;;;;5091235;28;20109;-77
2023/10/03 01:46:39;;;;;;;0.10;0.10;;;11.00;99.90;;;;;;5088812;28;20357;-76
2023/10/03 01:49:14;;;;;;;0.90;0.90;;;10.90;99.90;;;;;;5087453;28;20062;-76
2023/10/03 01:51:43;;;;;;;0.10;0.10;;;10.90;99.90;;;;;;5064295;28;20032;-76
2023/10/03 01:54:09;;;;;;;0.10;0.10;;;10.80;99.90;;;;;;5087151;28;20099;-76
2023/10/03 01:56:36;;;;;;;0.10;0.10;;;10.80;99.90;;;;;;5089121;28;20039;-76
2023/10/03 01:59:02;;;;;;;2.28;2.17;;;10.80;99.90;;;;;;5052254;28;20039;-76
2023/10/03 02:01:29;;;;;;;2.67;2.47;;;10.80;99.90;;;;;;5075154;28;20020;-76
2023/10/03 02:03:59;;;;;;;0.10;0.10;;;10.80;99.90;;;;;;5092334;28;20036;-75
2023/10/03 02:06:26;;;;;;;0.10;0.10;;;10.70;99.90;;;;;;5095888;28;20063;-76
2023/10/03 02:08:51;;;;;;;0.10;0.10;;;11.20;99.90;;;;;;5078136;28;20023;-76
2023/10/03 02:11:17;;;;;;;0.10;0.10;;;10.70;99.90;;;;;;5097770;28;20032;-76
2023/10/03 02:13:45;;;;;;;0.10;0.10;;;10.80;99.90;;;;;;5098936;28;20243;-76
2023/10/03 02:16:13;;;;;;;0.10;0.10;;;10.70;99.90;;;;;;5086049;28;20024;-76
2023/10/03 02:18:40;;;;;;;0.10;0.10;;;10.70;99.90;;;;;;5077560;28;20067;-76
2023/10/03 02:21:09;;;;;;;2.15;2.05;;;10.70;99.90;;;;;;5096045;28;20042;-77
2023/10/03 02:23:47;;;;;;;0.10;0.10;;;11.10;99.90;;;;;;5094883;28;20208;-76
2023/10/03 02:26:16;;;;;;;0.10;0.10;;;10.60;99.90;;;;;;5088548;28;20081;-76
2023/10/03 02:28:42;;;;;;;0.10;0.10;;;10.50;99.90;;;;;;5088686;28;20517;-75
2023/10/03 02:31:08;;;;;;;0.10;0.10;;;10.50;99.90;;;;;;5098355;28;20028;-76
2023/10/03 02:33:44;;;;;;;0.00;0.00;;;10.40;99.90;;;;;;5095498;28;20016;-76
2023/10/03 02:36:19;;;;;;;0.20;0.20;;;10.40;99.90;;;;;;5089679;28;20013;-77
2023/10/03 02:39:13;;;;;;;0.10;0.10;;;10.40;99.90;;;;;;5091539;28;20117;-76
2023/10/03 02:41:41;;;;;;;0.10;0.10;;;10.30;99.90;;;;;;5093114;28;20078;-77
2023/10/03 02:44:07;;;;;;;0.10;0.10;;;10.40;99.90;;;;;;5090130;28;20028;-75
2023/10/03 02:46:33;;;;;;;0.10;0.10;;;10.40;99.90;;;;;;5075707;28;20040;-74
2023/10/03 02:49:03;;;;;;;0.00;0.00;;;11.00;99.90;;;;;;5092796;28;20028;-75
2023/10/03 02:51:32;;;;;;;0.10;0.10;;;10.30;99.90;;;;;;5096077;28;20025;-75
2023/10/03 02:54:00;;;;;;;0.10;0.10;;;10.30;99.90;;;;;;5085683;28;20119;-76
2023/10/03 02:56:31;;;;;;;0.10;0.10;;;10.30;99.90;;;;;;5074297;28;20012;-76
2023/10/03 02:58:58;;;;;;;0.10;0.10;;;10.40;99.90;;;;;;5089578;28;20059;-76
2023/10/03 03:01:25;;;;;;;0.00;0.00;;;10.30;99.90;;;;;;5087120;28;20630;-76
2023/10/03 03:03:52;;;;;;;0.10;0.10;;;10.30;99.90;;;;;;5089181;28;20068;-76
2023/10/03 03:06:20;;;;;;;0.00;0.00;;;10.40;99.90;;;;;;5067354;28;20017;-75
2023/10/03 03:08:46;;;;;;;0.10;0.10;;;10.40;99.90;;;;;;5084236;28;20020;-76
2023/10/03 03:11:16;;;;;;;0.32;0.32;;;10.60;99.90;;;;;;5087606;28;20040;-76
2023/10/03 03:13:42;;;;;;;0.10;0.10;;;12.30;99.90;;;;;;5071458;28;20176;-77
2023/10/03 03:16:15;;;;;;;0.10;0.10;;;10.30;99.90;;;;;;5076950;28;20114;-76
2023/10/03 03:18:47;;;;;;;0.10;0.10;;;10.30;99.90;;;;;;5073072;28;20024;-77
2023/10/03 03:21:15;;;;;;;0.10;0.10;;;13.00;99.90;;;;;;5085682;28;20032;-77
2023/10/03 03:23:56;;;;;;;0.10;0.10;;;10.70;99.90;;;;;;5092175;28;20062;-76
2023/10/03 03:26:47;;;;;;;0.00;0.00;;;10.30;99.90;;;;;;5083588;28;20016;-76
2023/10/03 03:29:21;;;;;;;0.00;0.00;;;11.20;99.90;;;;;;5070714;28;20052;-76
2023/10/03 03:31:50;;;;;;;0.00;0.00;;;10.30;99.90;;;;;;5086556;28;20660;-76
2023/10/03 03:34:22;;;;;;;0.05;0.05;;;10.30;99.90;;;;;;5087285;28;20032;-76
2023/10/03 03:36:54;;;;;;;0.03;0.03;;;8.40;99.90;;;;;;5069187;28;20050;-76
2023/10/03 03:39:26;;;;;;;0.15;0.15;;;10.30;99.90;;;;;;5088479;28;20027;-75
2023/10/03 03:41:53;;;;;;;0.10;0.10;;;10.20;99.90;;;;;;5092958;28;20248;-76
2023/10/03 03:44:19;;;;;;;0.10;0.10;;;10.30;99.90;;;;;;5092914;28;20020;-75
2023/10/03 03:46:46;;;;;;;0.10;0.10;;;10.20;99.90;;;;;;5093462;28;20027;-75
2023/10/03 03:49:14;;;;;;;0.10;0.10;;;10.20;99.90;;;;;;5089679;28;20039;-75
2023/10/03 03:51:41;;;;;;;0.00;0.00;;;10.10;99.90;;;;;;5086554;28;20025;-76
2023/10/03 03:54:12;;;;;;;0.10;0.10;;;10.00;99.90;;;;;;5083895;28;20020;-76
2023/10/03 03:56:41;;;;;;;0.00;0.00;;;10.20;99.90;;;;;;5069822;28;20024;-75
2023/10/03 03:59:09;;;;;;;0.00;0.00;;;9.90;99.90;;;;;;5093144;28;20016;-76
2023/10/03 04:01:35;;;;;;;0.10;0.10;;;8.10;99.90;;;;;;5093389;28;20410;-75
2023/10/03 04:04:07;;;;;;;0.00;0.00;;;6.70;99.90;;;;;;5092128;28;20063;-76
2023/10/03 04:06:36;;;;;;;0.10;0.10;;;9.90;99.90;;;;;;5094625;28;20104;-76
2023/10/03 04:09:08;;;;;;;0.10;0.10;;;9.90;99.90;;;;;;5094197;28;20027;-76
2023/10/03 04:11:35;;;;;;;0.00;0.00;;;8.40;99.90;;;;;;5070328;28;20127;-76
2023/10/03 04:14:05;;;;;;;0.10;0.10;;;9.90;99.90;;;;;;5090281;28;20570;-75
2023/10/03 04:16:38;;;;;;;0.00;0.00;;;9.90;99.90;;;;;;5089038;28;20028;-76
2023/10/03 04:19:06;;;;;;;0.10;0.10;;;7.30;99.90;;;;;;5089196;28;20013;-76
2023/10/03 04:21:35;;;;;;;0.10;0.10;;;9.90;99.90;;;;;;5079749;28;20112;-76
2023/10/03 04:24:09;;;;;;;0.00;0.00;;;9.90;99.90;;;;;;5096289;28;20091;-75
2023/10/03 04:26:36;;;;;;;0.10;0.10;;;10.00;99.90;;;;;;5088190;28;20263;-76
2023/10/03 04:29:10;;;;;;;0.20;0.20;;;9.90;99.90;;;;;;5088072;28;20430;-76
2023/10/03 04:31:37;;;;;;;;;;;9.90;99.90;;;;;;5086817;28;20020;-76
2023/10/03 04:34:09;;;;;;;0.10;0.10;;;9.80;99.90;;;;;;5071377;28;20345;-76
2023/10/03 04:36:36;;;;;;;0.00;0.00;;;11.90;99.90;;;;;;5058502;28;20024;-76
2023/10/03 04:39:02;;;;;;;0.10;0.10;;;9.90;99.90;;;;;;5105861;28;20071;-76
2023/10/03 04:41:28;;;;;;;0.40;0.40;;;9.90;99.90;;;;;;5101179;28;20019;-76
2023/10/03 04:43:55;;;;;;;0.10;0.10;;;9.80;99.90;;;;;;5076080;28;20107;-76
2023/10/03 04:46:31;;;;;;;0.00;0.00;;;9.80;99.90;;;;;;5082922;28;20556;-75
2023/10/03 04:48:57;;;;;;;0.10;0.10;;;9.50;99.90;;;;;;5095930;28;20020;-75
2023/10/03 04:51:24;;;;;;;0.00;0.00;;;9.80;99.90;;;;;;5068033;28;20149;-76
2023/10/03 04:53:52;;;;;;;0.10;0.10;;;9.80;99.90;;;;;;5070724;28;20032;-75
2023/10/03 04:56:18;;;;;;;0.00;0.00;;;9.70;99.90;;;;;;5072825;28;20111;-76
2023/10/03 04:58:44;;;;;;;0.10;0.10;;;9.70;99.90;;;;;;5076275;28;20048;-77
2023/10/03 05:01:13;;;;;;;0.10;0.10;;;9.70;99.90;;;;;;5098533;28;20030;-76
2023/10/03 05:03:40;;;;;;;0.10;0.10;;;9.70;99.90;;;;;;5077555;28;20257;-77
2023/10/03 05:06:11;;;;;;;0.10;0.10;;;9.40;99.90;;;;;;5094360;28;20231;-77
2023/10/03 05:08:37;;;;;;;0.10;0.10;;;9.80;99.90;;;;;;5092447;28;20035;-76
2023/10/03 05:11:03;;;;;;;0.10;0.10;;;9.90;99.90;;;;;;5070642;28;20335;-76
2023/10/03 05:13:29;;;;;;;0.10;0.10;;;9.90;99.90;;;;;;5067779;28;20048;-76
2023/10/03 05:15:55;;;;;;;3.08;2.88;;;9.90;99.90;;;;;;5086923;28;20331;-75
2023/10/03 05:18:30;;;;;;;0.10;0.10;;;13.90;99.90;;;;;;5087846;28;20024;-76
2023/10/03 05:20:59;;;;;;;0.00;0.00;;;10.00;99.90;;;;;;5087750;28;20016;-75
2023/10/03 05:23:25;;;;;;;0.10;0.10;;;10.00;99.90;;;;;;5086567;28;20012;-76
2023/10/03 05:25:51;;;;;;;0.20;0.20;;;10.00;99.90;;;;;;5068971;28;20528;-75
2023/10/03 05:28:17;;;;;;;0.00;0.00;;;10.10;99.90;;;;;;5071712;28;20034;-76
2023/10/03 05:30:45;;;;;;;0.10;0.10;;;10.10;99.90;;;;;;5067768;28;20040;-75
2023/10/03 05:33:12;;;;;;;0.32;0.32;;;10.00;99.90;;;;;;5089906;28;20223;-76
2023/10/03 05:35:39;;;;;;;0.10;0.10;;;10.10;99.90;;;;;;5072431;28;20028;-76
2023/10/03 05:38:16;;;;;;;0.10;0.10;;;10.00;99.90;;;;;;5096063;28;20061;-77
2023/10/03 05:40:43;;;;;;;0.20;0.20;;;10.00;99.90;;;;;;5083126;28;20517;-75
2023/10/03 05:43:11;;;;;;;0.10;0.10;;;10.10;99.90;;;;;;5086778;28;20058;-76
2023/10/03 05:45:37;;;;;;;0.10;0.10;;;10.00;99.90;;;;;;5085237;28;20054;-75
2023/10/03 05:48:04;;;;;;;3.55;3.35;;;10.00;99.90;;;;;;5069092;28;20048;-76
2023/10/03 05:50:35;;;;;;;0.93;0.93;;;10.10;99.90;;;;;;5098786;28;20145;-76
2023/10/03 05:53:01;;;;;;;7.10;6.82;;;10.10;99.90;;;;;;5090155;28;20027;-76
2023/10/03 05:55:27;;;;;;;0.10;0.10;;;10.20;99.90;;;;;;5087834;28;20604;-76
2023/10/03 05:57:53;;;;;;;2.03;1.95;;;;;;;;;;5097222;28;20058;-76
2023/10/03 06:00:19;;;;;;;1.40;1.40;;;10.30;99.90;;;;;;5067903;28;20320;-76
2023/10/03 06:02:50;;;;;;;2.70;2.60;;;10.40;99.90;;;;;;5092193;28;20386;-76
2023/10/03 06:05:32;;;;;;;0.63;0.63;;;10.30;99.90;;;;;;5086126;28;20358;-76
2023/10/03 06:08:01;;;;;;;3.15;3.03;;;12.80;99.90;;;;;;5069752;28;20245;-76
2023/10/03 06:10:29;;;;;;;0.10;0.10;;;10.70;99.90;;;;;;5089818;28;20432;-75
2023/10/03 06:12:55;;;;;;;0.10;0.10;;;10.70;99.90;;;;;;5087972;28;20117;-76
2023/10/03 06:15:21;;;;;;;0.10;0.10;;;13.60;99.90;;;;;;5065725;28;20039;-76
2023/10/03 06:17:52;;;;;;;0.03;0.03;;;10.80;99.90;;;;;;5097184;28;20035;-75
2023/10/03 06:20:18;;;;;;;0.00;0.00;;;10.90;99.90;;;;;;5088501;28;20016;-76
2023/10/03 06:22:45;;;;;;;0.10;0.10;;;10.90;99.90;;;;;;5089324;28;20362;-75
2023/10/03 06:25:11;;;;;;;0.10;0.10;;;11.00;99.90;;;;;;5064660;28;20113;-76
2023/10/03 06:27:37;;;;;;;0.10;0.10;;;11.20;99.90;;;;;;5090293;28;20028;-76
2023/10/03 06:30:04;;;;;;;0.10;0.10;;;11.30;99.90;;;;;;5096591;28;20044;-79
2023/10/03 06:32:30;;;;;;;0.10;0.10;;;11.40;99.90;;;;;;5093209;28;20035;-76
2023/10/03 06:34:56;;;;;;;0.20;0.20;;;11.60;99.90;;;;;;5075431;28;20660;-76
2023/10/03 06:37:23;;;;;;;0.20;0.20;;;11.70;99.90;;;;;;5091332;28;20077;-75
2023/10/03 06:39:50;;;;;;;1.20;1.10;;;11.80;99.90;;;;;;5090244;28;20564;-75
2023/10/03 06:42:16;;;;;;;3.83;3.63;;;11.90;99.90;;;;;;5079147;28;20362;-76
2023/10/03 06:44:42;;;;;;;0.10;0.10;;;12.00;99.90;;;;;;5094372;28;20024;-77
2023/10/03 06:47:08;;;;;;;0.10;0.10;;;12.20;99.90;;;;;;5070232;28;20475;-76
2023/10/03 06:49:34;;;;;;;0.10;0.10;;;12.30;99.90;;;;;;5065049;28;20099;-77
2023/10/03 06:52:01;;;;;;;0.65;0.65;;;10.80;99.90;;;;;;5065503;28;20032;-76
2023/10/03 06:54:29;;;;;;;0.20;0.20;;;12.50;99.90;;;;;;5083897;28;20008;-76
2023/10/03 06:56:55;;;;;;;0.10;0.10;;;12.60;99.90;;;;;;5082386;28;20032;-76
2023/10/03 06:59:21;;;;;;;1.77;1.55;;;12.70;99.90;;;;;;5060827;28;20039;-78
2023/10/03 07:01:49;;;;;;;1.40;1.38;;;12.80;99.90;;;;;;5082635;28;20490;-82
2023/10/03 07:04:15;;;;;;;0.10;0.10;;;12.90;99.90;;;;;;5081403;28;20016;-77
2023/10/03 07:06:41;;;;;;;0.20;0.20;;;13.00;99.90;;;;;;5079054;28;20305;-76
2023/10/03 07:09:10;;;;;;;0.15;0.15;;;13.10;99.90;;;;;;5081980;28;20020;-76
2023/10/03 07:11:38;;;;;;;0.10;0.10;;;13.30;99.90;;;;;;5062341;28;20287;-80
2023/10/03 07:14:03;;;;;;;0.10;0.10;;;13.40;99.90;;;;;;5083819;28;20028;-79
2023/10/03 07:16:37;;;;;;;0.10;0.10;;;13.50;99.90;;;;;;5066018;28;20016;-78
2023/10/03 07:19:04;;;;;;;0.10;0.10;;;13.50;99.90;;;;;;5082691;28;20441;-77
2023/10/03 07:21:34;;;;;;;0.30;0.30;;;13.60;99.90;;;;;;5086208;28;20024;-76
2023/10/03 07:24:01;;;;;;;0.20;0.20;;;13.70;99.90;;;;;;5085242;28;20097;-75
2023/10/03 07:26:27;;;;;;;0.10;0.10;;;13.90;99.90;;;;;;5067308;28;20051;-83
2023/10/03 07:29:00;;;;;;;0.30;0.30;;;14.00;99.90;;;;;;5052277;28;20016;-77
2023/10/03 07:31:26;;;;;;;0.10;0.10;;;14.50;99.90;;;;;;5087124;28;20062;-78
2023/10/03 07:33:53;;;;;;;0.35;0.35;;;14.40;99.90;;;;;;5086188;28;20373;-77
2023/10/03 07:36:20;;;;;;;0.38;0.38;;;14.50;99.90;;;;;;5086355;28;20020;-80
2023/10/03 07:38:45;;;;;;;0.10;0.10;;;14.60;99.90;;;;;;5084161;28;20016;-83
2023/10/03 07:41:15;;;;;;;0.32;0.32;;;14.60;99.90;;;;;;5084971;28;20425;-87
2023/10/03 07:43:41;;;;;;;0.20;0.20;;;14.70;99.90;;;;;;5084155;28;20418;-77
2023/10/03 07:46:09;;;;;;;0.10;0.10;;;14.80;99.90;;;;;;5083858;28;20020;-80
2023/10/03 07:48:34;;;;;;;0.10;0.10;;;15.50;99.90;;;;;;5085465;28;20020;-78
2023/10/03 07:51:05;;;;;;;0.10;0.10;;;15.10;99.90;;;;;;5082839;28;20493;-76
2023/10/03 07:53:31;;;;;;;0.40;0.40;;;15.10;99.90;;;;;;5081424;28;20502;-77
2023/10/03 07:55:59;;;;;;;0.10;0.10;;;15.20;99.90;;;;;;5063221;28;20024;-76
2023/10/03 07:58:32;;;;;;;2.55;1.70;;;15.30;99.90;;;;;;5063854;28;20033;-76
2023/10/03 08:00:58;;;;;;;0.20;0.20;;;15.50;99.90;;;;;;5088251;28;20020;-84
2023/10/03 08:03:28;;;;;;;2.78;2.67;;;15.70;99.90;;;;;;5084702;28;20658;-77
2023/10/03 08:05:57;;;;;;;0.75;0.75;;;15.80;99.90;;;;;;5067811;28;20016;-82
2023/10/03 08:08:25;;;;;;;0.55;0.55;;;15.90;99.90;;;;;;5083356;28;20027;-87
2023/10/03 08:10:51;;;;;;;4.07;1.30;;;16.00;99.90;;;;;;5084017;28;20521;-77
2023/10/03 08:13:17;;;;;;;0.30;0.30;;;16.00;99.90;;;;;;5082605;28;20032;-76
2023/10/03 08:15:43;;;;;;;2.17;1.50;;;16.10;99.90;;;;;;5081528;28;20032;-76
2023/10/03 08:18:17;;;;;;;1.00;1.00;;;16.80;99.90;;;;;;5081101;28;20035;-77
2023/10/03 08:20:44;;;;;;;0.20;0.20;;;15.30;99.90;;;;;;5080671;28;20520;-83
2023/10/03 08:23:09;;;;;;;0.15;0.15;;;16.40;99.90;;;;;;5063295;28;20016;-80
2023/10/03 08:25:35;;;;;;;0.30;0.30;;;16.50;99.90;;;;;;5083815;28;20023;-79
2023/10/03 08:28:08;;;;;;;0.70;0.70;;;16.70;99.90;;;;;;5082023;28;20016;-79
2023/10/03 08:30:35;;;;;;;0.20;0.20;;;17.00;99.90;;;;;;5064233;28;20502;-76
2023/10/03 08:33:05;;;;;;;0.60;0.60;;;17.20;99.90;;;;;;5065702;28;20028;-76
2023/10/03 08:35:35;;;;;;;0.20;0.20;;;17.20;99.90;;;;;;5084405;28;20027;-84
2023/10/03 08:38:09;;;;;;;0.17;0.17;;;17.50;99.90;;;;;;5083629;28;20031;-76
2023/10/03 08:40:42;;;;;;;0.10;0.10;;;17.40;99.90;;;;;;5082892;28;20473;-82
2023/10/03 08:43:10;;;;;;;0.10;0.10;;;17.50;99.90;;;;;;5063836;28;20025;-78
2023/10/03 08:45:39;;;;;;;0.10;0.10;;;17.70;99.90;;;;;;5064863;28;20031;-86
2023/10/03 08:48:06;;;;;;;1.55;0.82;;;17.90;99.90;;;;;;5083177;28;20309;-76
2023/10/03 08:50:46;;;;;;;0.10;0.10;;;19.80;99.90;;;;;;5063788;28;20035;-76
2023/10/03 08:53:17;;;;;;;0.82;0.82;;;18.10;99.90;;;;;;5063827;28;20028;-78
2023/10/03 08:55:44;;;;;;;0.15;0.15;;;15.70;99.90;;;;;;5063686;28;20325;-78
2023/10/03 08:58:14;;;;;;;0.10;0.10;;;18.60;99.90;;;;;;5084541;28;20643;-77
2023/10/03 09:00:49;;;;;;;0.10;0.10;;;18.80;99.90;;;;;;5063009;28;20032;-76
2023/10/03 09:03:18;;;;;;;0.10;0.10;;;19.00;99.90;;;;;;5079813;28;20089;-82
2023/10/03 09:05:44;;;;;;;0.30;0.30;;;19.10;99.90;;;;;;5078967;28;20248;-77
2023/10/03 09:08:16;;;;;;;0.10;0.10;;;19.30;99.90;;;;;;5061030;28;20204;-78
2023/10/03 09:10:52;;;;;;;0.10;0.10;;;19.50;99.90;;;;;;5079057;28;20020;-78
2023/10/03 09:13:23;;;;;;;1.20;1.13;;;19.70;99.90;;;;;;5079690;28;20032;-77
2023/10/03 09:16:02;;;;;;;0.73;0.73;;;19.80;99.90;;;;;;5060090;28;20081;-75
2023/10/03 09:18:42;;;;;;;0.40;0.40;;;19.80;99.90;;;;;;5061726;28;20431;-78
2023/10/03 09:21:15;;;;;;;0.63;0.63;;;19.90;99.90;;;;;;5062632;28;20024;-82
2023/10/03 09:24:20;;;;;;;0.10;0.10;;;20.10;99.90;;;;;;5061430;28;20028;-83
2023/10/03 09:26:47;;;;;;;2.10;1.02;;;20.00;99.90;;;;;;5080882;28;20028;-77
2023/10/03 09:29:18;;;;;;;0.30;0.30;;;19.70;99.90;;;;;;5063292;28;20040;-82
2023/10/03 09:31:49;;;;;;;0.10;0.10;;;17.90;99.90;;;;;;5060859;28;20056;-76
2023/10/03 09:34:18;;;;;;;0.30;0.30;;;20.10;99.90;;;;;;5060664;28;20028;-77
2023/10/03 09:36:45;;;;;;;0.38;0.38;;;20.30;99.90;;;;;;5060970;28;20042;-76
2023/10/03 09:39:20;;;;;;;0.57;0.57;;;20.40;99.90;;;;;;5079778;28;20020;-76
2023/10/03 09:41:54;;;;;;;0.68;0.52;;;20.50;99.90;;;;;;5081131;28;20047;-76
2023/10/03 09:44:29;;;;;;;0.10;0.10;;;20.50;99.90;;;;;;5080620;28;20490;-76
2023/10/03 09:47:04;;;;;;;0.10;0.10;;;20.80;99.90;;;;;;5063144;28;20024;-76
2023/10/03 09:49:38;;;;;;;0.15;0.15;;;20.60;99.90;;;;;;5062556;28;20031;-79
2023/10/03 09:52:22;;;;;;;0.10;0.10;;;20.70;99.90;;;;;;5060986;28;20639;-82
2023/10/03 09:55:00;;;;;;;0.15;0.15;;;20.80;99.90;;;;;;5079021;28;20020;-75
2023/10/03 09:57:30;;;;;;;0.10;0.10;;;21.00;99.90;;;;;;5059987;28;20043;-78
2023/10/03 09:59:57;;;;;;;0.35;0.35;;;21.20;99.90;;;;;;5060103;28;20086;-76
2023/10/03 10:02:31;;;;;;;0.43;0.43;;;21.80;99.90;;;;;;5078559;28;20023;-75
2023/10/03 10:05:27;;;;;;;0.20;0.20;;;21.60;99.90;;;;;;5059473;28;20031;-74
2023/10/03 10:08:19;;;;;;;0.35;0.32;;;21.80;99.90;;;;;;5014987;28;20026;-76
2023/10/03 10:11:07;;;;;;;0.10;0.10;;;21.80;99.90;;;;;;4998262;28;20026;-78
2023/10/03 10:13:41;;;;;;;0.32;0.32;;;21.90;99.90;;;;;;5014430;28;20343;-77
2023/10/03 10:16:20;;;;;;;0.90;0.90;;;22.00;99.90;;;;;;5014754;28;20030;-76
2023/10/03 10:18:46;;;;;;;0.10;0.10;;;22.20;99.90;;;;;;5014591;28;20155;-75
2023/10/03 10:21:23;;;;;;;0.38;0.38;;;22.30;99.90;;;;;;4997931;28;20049;-75
2023/10/03 10:24:20;;;;;;;0.40;0.40;;;22.00;99.90;;;;;;4997844;28;20029;-78
2023/10/03 10:26:52;;;;;;;0.15;0.15;;;24.30;99.90;;;;;;5014617;28;20053;-85
2023/10/03 10:29:20;;;;;;;0.10;0.10;;;22.80;99.90;;;;;;5014872;28;20608;-75
2023/10/03 10:31:57;;;;;;;0.32;0.32;;;23.00;99.90;;;;;;5014490;28;20042;-83
2023/10/03 10:34:27;;;;;;;0.20;0.20;;;23.20;99.90;;;;;;5000511;28;20136;-75
2023/10/03 10:37:02;;;;;;;2.38;0.65;;;23.30;99.90;;;;;;5000502;28;20179;-75
2023/10/03 10:43:00;;;;;;;0.10;0.10;;;23.60;99.90;;;;;;5015674;28;20220;-75
2023/10/03 10:45:27;;;;;;;2.58;2.40;;;23.70;99.90;;;;;;5075018;28;20043;-81
2023/10/03 10:47:55;;;;;;;0.98;0.98;;;23.80;99.90;;;;;;5061637;28;20096;-82
2023/10/03 10:50:25;;;;;;;1.17;0.68;;;24.00;99.90;;;;;;5081108;28;20024;-77
2023/10/03 10:52:57;;;;;;;1.17;0.90;;;24.00;99.90;;;;;;5062977;28;20039;-79
2023/10/03 10:55:24;;;;;;;1.77;1.67;;;24.20;99.90;;;;;;5060872;28;20043;-78
2023/10/03 10:58:08;;;;;;;0.15;0.13;;;24.20;98.70;;;;;;5079302;28;20020;-77
2023/10/03 11:00:34;;;;;;;0.10;0.10;;;24.40;97.90;;;;;;5061232;28;20055;-80
2023/10/03 11:03:07;;;;;;;0.50;0.50;;;24.60;97.80;;;;;;5079369;28;20024;-76
2023/10/03 11:05:47;;;;;;;0.30;0.30;;;24.60;97.30;;;;;;5078276;28;20028;-75
2023/10/03 11:08:13;;;;;;;0.10;0.10;;;24.80;97.40;;;;;;5060168;28;20032;-76
2023/10/03 11:10:54;;;;;;;1.33;1.05;;;25.00;96.10;;;;;;5062498;28;20027;-76
2023/10/03 11:13:24;;;;;;;0.03;0.03;;;25.10;96.20;;;;;;5060869;28;20055;-75
2023/10/03 11:15:54;;;;;;;0.65;0.65;;;25.40;96.10;;;;;;5059114;28;20032;-76
2023/10/03 11:18:31;;;;;;;0.17;0.15;;;25.60;95.30;;;;;;5059230;28;20390;-82
2023/10/03 11:21:03;;;;;;;0.85;0.85;;;25.70;94.70;;;;;;5059182;28;20129;-77
2023/10/03 11:23:29;;;;;;;0.80;0.80;;;25.70;94.80;;;;;;5077226;28;20020;-75
2023/10/03 11:26:00;;;;;;;1.95;0.65;;;25.90;93.60;;;;;;5059742;28;20038;-77
2023/10/03 11:28:30;;;;;;;0.00;0.00;;;26.20;93.90;;;;;;5060565;28;20047;-88
2023/10/03 11:31:04;;;;;;;0.38;0.32;;;26.40;92.20;;;;;;5077355;28;20043;-78
2023/10/03 11:33:44;;;;;;;1.27;1.20;;;26.40;91.40;;;;;;5078731;28;20020;-76
2023/10/03 11:36:11;;;;;;;0.00;0.00;;;26.60;90.80;;;;;;5078320;28;20020;-80
2023/10/03 11:38:51;;;;;;;0.03;0.03;;;26.60;90.10;;;;;;5078059;28;20025;-85
2023/10/03 11:41:44;;;;;;;0.10;0.10;;;27.10;90.50;;;;;;5060313;28;20027;-83
2023/10/03 11:44:17;;;;;;;;;;;27.20;90.10;;;;;;5076011;28;20055;-83
2023/10/03 11:46:44;;;;;;;0.00;0.00;;;27.20;89.20;;;;;;5078996;28;20425;-81
2023/10/03 11:49:10;;;;;;;0.63;0.63;;;25.10;85.30;;;;;;5077949;28;20051;-85
2023/10/03 11:51:42;;;;;;;0.00;0.00;;;27.70;87.50;;;;;;5078252;28;20261;-85
2023/10/03 11:54:08;;;;;;;0.10;0.10;;;27.80;86.20;;;;;;5078429;28;20324;-87
2023/10/03 11:56:45;;;;;;;0.60;0.30;;;28.00;84.30;;;;;;5059591;28;20027;-76
2023/10/03 11:59:14;;;;;;;0.10;0.10;;;25.90;83.50;;;;;;5077397;28;20016;-78
2023/10/03 12:01:56;;;;;;;3.75;0.68;;;28.40;84.70;;;;;;5059220;28;20029;-88
2023/10/03 12:04:25;;;;;;;0.00;0.00;;;28.60;83.50;;;;;;5077232;28;20018;-76
2023/10/03 12:06:51;;;;;;;0.85;0.73;;;28.90;82.30;;;;;;5078226;28;20407;-74
2023/10/03 12:09:17;;;;;;;0.10;0.10;;;29.00;79.70;;;;;;5041896;28;20139;-79
2023/10/03 12:11:43;;;;;;;0.00;0.00;;;29.20;78.80;;;;;;5076706;28;20087;-76
2023/10/03 12:14:09;;;;;;;0.00;0.00;;;29.30;77.90;;;;;;5076597;28;20278;-76
2023/10/03 12:16:39;;;;;;;0.38;0.20;;;29.40;78.00;;;;;;5059092;28;20542;-77
2023/10/03 12:19:06;;;;;;;0.15;0.13;;;29.40;75.80;;;;;;5062720;28;20039;-82
2023/10/03 12:21:32;;;;;;;0.52;0.30;;;29.70;77.60;;;;;;5082025;28;20012;-78
2023/10/03 12:23:58;;;;;;;0.10;0.10;;;29.60;74.70;;;;;;5063064;28;20048;-81
2023/10/03 12:26:24;;;;;;;0.00;0.00;;;29.30;75.70;;;;;;5082857;28;20524;-81
2023/10/03 12:28:52;;;;;;;0.25;0.20;;;29.50;74.60;;;;;;5081961;28;20280;-77
2023/10/03 12:31:25;;;;;;;0.88;0.75;;;31.90;76.30;;;;;;5081938;28;20541;-87
2023/10/03 12:33:51;;;;;;;;;;;29.90;74.40;;;;;;5083436;28;20316;-85
2023/10/03 12:36:17;;;;;;;0.05;0.05;;;29.80;73.40;;;;;;5080108;28;19912;-76
2023/10/03 12:38:43;;;;;;;0.00;0.00;;;30.00;74.90;;;;;;5061500;28;20051;-78
2023/10/03 12:41:09;;;;;;;0.38;0.38;;;30.20;75.10;;;;;;5080935;28;20027;-76
2023/10/03 12:43:37;;;;;;;0.10;0.10;;;30.40;73.20;;;;;;5061403;28;20039;-76
2023/10/03 12:46:04;;;;;;;0.98;0.45;;;28.40;70.80;;;;;;5061629;28;20067;-74
2023/10/03 12:48:32;;;;;;;3.70;0.70;;;30.60;74.10;;;;;;5061469;28;20023;-75
2023/10/03 12:50:58;;;;;;;0.10;0.10;;;30.50;72.70;;;;;;5081064;28;20374;-79
2023/10/03 12:53:24;;;;;;;11.50;0.60;;;30.60;71.90;;;;;;5080091;28;20444;-78
2023/10/03 12:55:50;;;;;;;1.02;0.93;;;30.80;70.70;;;;;;5081205;28;20031;-84
2023/10/03 12:58:18;;;;;;;0.20;0.20;;;30.90;70.50;;;;;;5081194;28;20032;-79
2023/10/03 13:00:47;;;;;;;0.00;0.00;;;31.10;70.50;;;;;;5081238;28;20024;-81
2023/10/03 13:03:12;;;;;;;0.20;0.20;;;31.20;68.70;;;;;;5062461;28;20028;-76
2023/10/03 13:05:39;;;;;;;0.63;0.30;;;31.20;68.50;;;;;;5080262;28;20144;-77
2023/10/03 13:08:05;;;;;;;0.73;0.73;;;31.40;66.20;;;;;;5061550;28;20630;-77
2023/10/03 13:10:34;;;;;;;6.40;1.58;;;31.30;67.10;;;;;;5079984;28;20021;-78